createdAt,value
2023-01-03T00:00:38.222Z,9.50
2023-01-03T00:03:02.886Z,9.50
2023-01-03T00:05:27.357Z,9.40
2023-01-03T00:07:51.780Z,9.50
2023-01-03T00:10:16.129Z,9.50
2023-01-03T00:12:39.485Z,9.50
2023-01-03T00:15:05.947Z,9.40
2023-01-03T00:17:30.640Z,9.40
2023-01-03T00:19:55.207Z,9.40
2023-01-03T00:22:19.631Z,9.40
2023-01-03T00:24:44.883Z,9.40
2023-01-03T00:27:09.478Z,9.30
2023-01-03T00:29:34.632Z,9.30
2023-01-03T00:32:00.560Z,9.20
2023-01-03T00:34:24.981Z,9.10
2023-01-03T00:36:49.388Z,9.20
2023-01-03T00:39:14.076Z,9.10
2023-01-03T00:41:38.897Z,9.20
2023-01-03T00:44:03.657Z,9.20
2023-01-03T00:46:28.118Z,9.20
2023-01-03T00:48:54.065Z,9.20
2023-01-03T00:51:20.838Z,9.20
2023-01-03T00:53:46.870Z,9.30
2023-01-03T00:56:13.742Z,9.20
2023-01-03T00:58:38.879Z,9.20
2023-01-03T01:01:06.951Z,9.10
2023-01-03T01:03:31.475Z,9.10
2023-01-03T01:05:57.235Z,9.00
2023-01-03T01:08:21.655Z,8.90
2023-01-03T01:11:04.243Z,8.90
2023-01-03T01:13:28.964Z,8.90
2023-01-03T01:15:54.650Z,9.00
2023-01-03T01:18:20.637Z,8.90
2023-01-03T01:20:45.093Z,9.00
2023-01-03T01:23:10.946Z,9.00
2023-01-03T01:25:35.959Z,9.00
2023-01-03T01:28:00.328Z,9.00
2023-01-03T01:30:24.825Z,9.00
2023-01-03T01:32:49.623Z,8.90
2023-01-03T01:35:14.195Z,8.90
2023-01-03T01:37:38.544Z,8.90
2023-01-03T01:40:04.516Z,8.90
2023-01-03T01:42:46.508Z,9.00
2023-01-03T01:45:15.304Z,8.90
2023-01-03T01:47:45.172Z,8.90
2023-01-03T01:50:19.233Z,8.90
2023-01-03T01:52:47.667Z,8.90
2023-01-03T01:55:17.470Z,8.90
2023-01-03T01:57:43.343Z,8.90
2023-01-03T02:00:10.887Z,8.90
2023-01-03T02:02:41.857Z,8.90
2023-01-03T02:05:09.898Z,8.90
2023-01-03T02:07:34.863Z,8.80
2023-01-03T02:10:00.199Z,8.80
2023-01-03T02:12:56.985Z,8.70
2023-01-03T02:15:53.130Z,8.80
2023-01-03T02:18:33.318Z,8.70
2023-01-03T02:21:15.659Z,8.60
2023-01-03T02:24:23.083Z,8.60
2023-01-03T02:26:58.652Z,8.50
2023-01-03T02:30:26.147Z,8.60
2023-01-03T02:33:02.958Z,8.50
2023-01-03T02:35:32.969Z,8.50
2023-01-03T02:38:00.000Z,8.40
2023-01-03T02:40:29.708Z,8.40
2023-01-03T02:43:02.575Z,8.30
2023-01-03T02:45:41.599Z,8.40
2023-01-03T02:48:12.869Z,8.40
2023-01-03T02:50:44.158Z,8.40
2023-01-03T02:53:13.912Z,8.40
2023-01-03T02:55:40.315Z,8.40
2023-01-03T02:58:08.242Z,8.40
2023-01-03T03:00:35.261Z,8.40
2023-01-03T03:03:02.254Z,8.40
2023-01-03T03:05:33.585Z,8.30
2023-01-03T03:07:58.139Z,8.30
2023-01-03T03:10:52.176Z,8.30
2023-01-03T03:13:24.192Z,8.30
2023-01-03T03:15:55.980Z,8.20
2023-01-03T03:18:23.965Z,8.00
2023-01-03T03:21:07.428Z,8.00
2023-01-03T03:23:53.345Z,8.00
2023-01-03T03:26:21.634Z,8.00
2023-01-03T03:28:49.947Z,8.00
2023-01-03T03:31:18.759Z,8.10
2023-01-03T03:33:46.768Z,8.10
2023-01-03T03:36:17.441Z,8.10
2023-01-03T03:38:44.728Z,8.10
2023-01-03T03:41:45.506Z,8.10
2023-01-03T03:44:37.403Z,8.20
2023-01-03T03:47:10.123Z,8.20
2023-01-03T03:49:40.558Z,8.20
2023-01-03T03:52:10.836Z,8.10
2023-01-03T03:54:38.223Z,8.00
2023-01-03T03:57:07.225Z,8.10
2023-01-03T03:59:33.561Z,8.10
2023-01-03T04:02:00.459Z,8.10
2023-01-03T04:04:30.472Z,8.00
2023-01-03T04:06:55.204Z,8.00
2023-01-03T04:09:21.400Z,8.00
2023-01-03T04:11:45.849Z,8.00
2023-01-03T04:14:10.270Z,7.90
2023-01-03T04:16:34.789Z,7.90
2023-01-03T04:18:59.209Z,7.90
2023-01-03T04:21:23.564Z,7.90
2023-01-03T04:23:47.947Z,7.70
2023-01-03T04:26:13.809Z,7.50
2023-01-03T04:28:38.220Z,7.60
2023-01-03T04:31:02.732Z,7.60
2023-01-03T04:33:27.086Z,7.60
2023-01-03T04:35:51.488Z,7.50
2023-01-03T04:38:15.859Z,7.60
2023-01-03T04:40:40.381Z,7.70
2023-01-03T04:43:23.516Z,7.50
2023-01-03T04:45:50.163Z,7.50
2023-01-03T04:48:14.648Z,7.40
2023-01-03T04:50:39.012Z,7.30
2023-01-03T04:53:03.446Z,7.30
2023-01-03T04:55:27.906Z,7.40
2023-01-03T04:57:52.273Z,7.40
2023-01-03T05:00:19.173Z,7.50
2023-01-03T05:02:43.549Z,7.50
2023-01-03T05:05:09.043Z,7.60
2023-01-03T05:07:33.469Z,7.60
2023-01-03T05:09:57.853Z,7.60
2023-01-03T05:12:22.233Z,7.60
2023-01-03T05:14:46.857Z,7.60
2023-01-03T05:17:12.724Z,7.70
2023-01-03T05:19:57.426Z,7.60
2023-01-03T05:22:39.005Z,7.60
2023-01-03T05:25:20.796Z,7.60
2023-01-03T05:27:46.413Z,7.60
2023-01-03T05:30:11.586Z,7.60
2023-01-03T05:32:37.460Z,7.60
2023-01-03T05:35:01.855Z,7.70
2023-01-03T05:37:27.639Z,7.60
2023-01-03T05:39:51.976Z,7.60
2023-01-03T05:42:16.629Z,7.70
2023-01-03T05:44:40.965Z,7.70
2023-01-03T05:47:06.439Z,7.80
2023-01-03T05:49:33.546Z,7.80
2023-01-03T05:51:57.963Z,7.80
2023-01-03T05:54:22.657Z,7.80
2023-01-03T05:56:47.220Z,7.80
2023-01-03T05:59:12.152Z,8.00
2023-01-03T06:01:36.898Z,8.20
2023-01-03T06:04:01.709Z,8.60
2023-01-03T06:06:27.895Z,9.00
2023-01-03T06:08:52.282Z,9.50
2023-01-03T06:11:17.831Z,10.10
2023-01-03T06:13:42.552Z,10.80
2023-01-03T06:16:27.523Z,11.10
2023-01-03T06:18:52.087Z,11.40
2023-01-03T06:21:16.543Z,11.70
2023-01-03T06:23:42.762Z,11.90
2023-01-03T06:26:07.528Z,11.90
2023-01-03T06:28:32.828Z,11.90
2023-01-03T06:30:57.229Z,12.00
2023-01-03T06:33:21.859Z,12.10
2023-01-03T06:35:46.195Z,12.50
2023-01-03T06:38:10.579Z,13.00
2023-01-03T06:40:40.703Z,13.30
2023-01-03T06:43:08.709Z,13.50
2023-01-03T06:45:50.364Z,13.50
2023-01-03T06:48:32.307Z,13.30
2023-01-03T06:51:14.436Z,13.20
2023-01-03T06:53:40.786Z,13.20
2023-01-03T06:56:07.021Z,13.30
2023-01-03T06:58:31.663Z,13.60
2023-01-03T07:00:57.361Z,13.50
2023-01-03T07:03:22.221Z,13.30
2023-01-03T07:05:46.585Z,13.10
2023-01-03T07:08:11.061Z,12.70
2023-01-03T07:10:35.382Z,12.70
2023-01-03T07:13:20.579Z,12.60
2023-01-03T07:15:45.410Z,12.50
2023-01-03T07:18:09.726Z,11.80
2023-01-03T07:20:34.189Z,11.70
2023-01-03T07:22:58.513Z,11.70
2023-01-03T07:25:22.923Z,12.10
2023-01-03T07:27:58.756Z,12.70
2023-01-03T07:30:29.957Z,12.50
2023-01-03T07:32:54.288Z,12.60
2023-01-03T07:35:19.021Z,12.40
2023-01-03T07:37:43.353Z,12.40
2023-01-03T07:40:09.379Z,12.50
2023-01-03T07:42:51.549Z,12.40
2023-01-03T07:45:16.403Z,12.30
2023-01-03T07:47:47.589Z,12.20
2023-01-03T07:50:12.611Z,12.40
2023-01-03T07:52:37.323Z,12.80
2023-01-03T07:55:01.773Z,13.10
2023-01-03T07:57:27.114Z,13.30
2023-01-03T07:59:51.928Z,13.50
2023-01-03T08:02:16.983Z,13.80
2023-01-03T08:04:43.051Z,13.90
2023-01-03T08:07:08.062Z,14.30
2023-01-03T08:09:49.659Z,14.50
2023-01-03T08:12:33.961Z,14.50
2023-01-03T08:14:59.069Z,14.50
2023-01-03T08:17:23.715Z,14.90
2023-01-03T08:19:49.774Z,14.90
2023-01-03T08:22:14.283Z,14.40
2023-01-03T08:24:39.149Z,14.30
2023-01-03T08:27:05.046Z,14.40
2023-01-03T08:29:29.734Z,14.30
2023-01-03T08:32:00.300Z,14.20
2023-01-03T08:34:29.763Z,14.00
2023-01-03T08:36:58.485Z,14.00
2023-01-03T08:39:28.353Z,14.10
2023-01-03T08:41:58.980Z,14.30
2023-01-03T08:44:23.414Z,14.40
2023-01-03T08:46:51.284Z,14.50
2023-01-03T08:49:16.248Z,14.70
2023-01-03T08:51:41.079Z,14.60
2023-01-03T08:54:07.050Z,14.50
2023-01-03T08:56:31.358Z,14.70
2023-01-03T08:58:57.701Z,14.50
2023-01-03T09:01:22.254Z,14.30
2023-01-03T09:03:46.760Z,14.20
2023-01-03T09:06:11.363Z,14.20
2023-01-03T09:08:36.538Z,14.30
2023-01-03T09:11:05.996Z,14.30
2023-01-03T09:13:30.875Z,14.60
2023-01-03T09:16:02.444Z,14.80
2023-01-03T09:18:26.910Z,14.90
2023-01-03T09:20:53.237Z,15.10
2023-01-03T09:23:17.568Z,15.20
2023-01-03T09:25:41.840Z,15.40
2023-01-03T09:28:07.776Z,15.60
2023-01-03T09:30:32.121Z,15.50
2023-01-03T09:32:59.345Z,15.40
2023-01-03T09:35:23.787Z,15.30
2023-01-03T09:37:49.164Z,15.30
2023-01-03T09:40:14.467Z,15.40
2023-01-03T09:42:56.775Z,15.50
2023-01-03T09:45:28.653Z,15.40
2023-01-03T09:47:53.225Z,15.50
2023-01-03T09:50:57.153Z,15.40
2023-01-03T09:53:24.882Z,15.40
2023-01-03T09:56:11.078Z,15.50
2023-01-03T09:58:52.964Z,15.70
2023-01-03T10:01:49.020Z,15.70
2023-01-03T10:04:42.555Z,15.90
2023-01-03T10:07:19.968Z,16.00
2023-01-03T10:09:50.860Z,16.10
2023-01-03T10:12:24.580Z,16.10
2023-01-03T10:15:04.479Z,16.00
2023-01-03T10:17:38.141Z,16.00
2023-01-03T10:20:27.903Z,15.90
2023-01-03T10:22:58.099Z,16.10
2023-01-03T10:25:24.947Z,16.30
2023-01-03T10:27:51.936Z,16.30
2023-01-03T10:30:19.382Z,16.30
2023-01-03T10:33:23.576Z,16.50
2023-01-03T10:35:49.621Z,16.40
2023-01-03T10:38:17.324Z,16.60
2023-01-03T10:40:45.622Z,16.50
2023-01-03T10:43:16.654Z,16.50
2023-01-03T10:45:53.986Z,16.60
2023-01-03T10:48:19.139Z,16.60
2023-01-03T10:50:43.406Z,16.60
2023-01-03T10:53:12.330Z,16.60
2023-01-03T10:55:47.051Z,16.60
2023-01-03T10:58:21.220Z,16.60
2023-01-03T11:00:45.782Z,16.70
2023-01-03T11:03:16.879Z,16.80
2023-01-03T11:05:43.270Z,16.90
2023-01-03T11:08:17.721Z,17.00
2023-01-03T11:10:53.677Z,16.90
2023-01-03T11:13:29.028Z,16.90
2023-01-03T11:15:56.170Z,17.00
2023-01-03T11:18:21.833Z,16.90
2023-01-03T11:20:51.661Z,16.80
2023-01-03T11:23:19.518Z,16.80
2023-01-03T11:26:03.953Z,17.00
2023-01-03T11:28:54.786Z,17.00
2023-01-03T11:31:39.583Z,17.10
2023-01-03T11:34:17.379Z,17.00
2023-01-03T11:36:49.995Z,17.10
2023-01-03T11:39:30.205Z,17.00
2023-01-03T11:42:22.031Z,16.80
2023-01-03T11:45:15.799Z,16.80
2023-01-03T11:47:49.169Z,16.60
2023-01-03T11:50:25.921Z,16.50
2023-01-03T11:52:57.786Z,16.50
2023-01-03T11:55:41.601Z,16.50
2023-01-03T11:58:28.707Z,16.60
2023-01-03T12:01:02.268Z,16.50
2023-01-03T12:03:38.649Z,16.60
2023-01-03T12:06:11.938Z,16.70
2023-01-03T12:08:49.733Z,16.70
2023-01-03T12:11:39.857Z,16.70
2023-01-03T12:14:11.116Z,16.60
2023-01-03T12:16:39.439Z,16.60
2023-01-03T12:19:12.603Z,16.60
2023-01-03T12:21:39.229Z,16.60
2023-01-03T12:24:12.683Z,16.70
2023-01-03T12:26:41.982Z,16.50
2023-01-03T12:29:12.871Z,16.10
2023-01-03T12:31:40.881Z,16.10
2023-01-03T12:34:18.827Z,16.10
2023-01-03T12:36:49.807Z,16.10
2023-01-03T12:39:33.631Z,15.90
2023-01-03T12:42:04.943Z,15.90
2023-01-03T12:44:35.015Z,15.80
2023-01-03T12:47:01.540Z,15.80
2023-01-03T12:49:32.887Z,15.70
2023-01-03T12:51:57.377Z,15.80
2023-01-03T12:54:35.181Z,15.80
2023-01-03T12:57:27.002Z,15.80
2023-01-03T13:00:24.195Z,15.90
2023-01-03T13:02:53.248Z,15.90
2023-01-03T13:05:23.898Z,15.90
2023-01-03T13:07:54.440Z,15.90
2023-01-03T13:10:21.855Z,15.90
2023-01-03T13:12:51.610Z,15.90
2023-01-03T13:15:27.353Z,15.90
2023-01-03T13:17:54.501Z,16.00
2023-01-03T13:20:36.556Z,15.90
2023-01-03T13:23:02.041Z,16.00
2023-01-03T13:25:41.101Z,16.00
2023-01-03T13:28:29.821Z,16.10
2023-01-03T13:31:38.178Z,16.20
2023-01-03T13:34:15.913Z,16.10
2023-01-03T13:37:16.272Z,16.00
2023-01-03T13:39:41.868Z,16.00
2023-01-03T13:42:06.956Z,15.90
2023-01-03T13:44:34.343Z,15.90
2023-01-03T13:46:59.634Z,15.80
2023-01-03T13:49:27.144Z,15.70
2023-01-03T13:51:53.108Z,15.60
2023-01-03T13:54:35.413Z,15.60
2023-01-03T13:57:05.161Z,15.50
2023-01-03T13:59:37.269Z,15.50
2023-01-03T14:02:40.580Z,15.50
2023-01-03T14:05:39.557Z,15.50
2023-01-03T14:08:23.694Z,15.40
2023-01-03T14:11:18.411Z,15.30
2023-01-03T14:13:44.960Z,15.30
2023-01-03T14:16:25.297Z,15.20
2023-01-03T14:18:59.038Z,15.20
2023-01-03T14:21:28.589Z,15.10
2023-01-03T14:24:01.174Z,15.10
2023-01-03T14:26:26.546Z,15.00
2023-01-03T14:28:54.075Z,14.90
2023-01-03T14:31:22.549Z,14.80
2023-01-03T14:33:53.358Z,14.80
2023-01-03T14:36:19.276Z,14.70
2023-01-03T14:38:49.057Z,14.60
2023-01-03T14:41:28.163Z,14.60
2023-01-03T14:44:01.176Z,14.40
2023-01-03T14:46:28.560Z,14.40
2023-01-03T14:48:56.711Z,14.30
2023-01-03T14:51:24.388Z,14.30
2023-01-03T14:53:49.102Z,14.10
2023-01-03T14:56:14.536Z,14.10
2023-01-03T14:58:42.227Z,14.00
2023-01-03T15:01:08.543Z,13.90
2023-01-03T15:03:40.692Z,13.90
2023-01-03T15:06:19.724Z,13.80
2023-01-03T15:08:45.587Z,13.80
2023-01-03T15:11:11.253Z,13.70
2023-01-03T15:13:38.652Z,13.70
2023-01-03T15:16:06.419Z,13.70
2023-01-03T15:18:34.382Z,13.70
2023-01-03T15:21:04.201Z,13.70
2023-01-03T15:23:39.043Z,13.60
2023-01-03T15:26:03.836Z,13.50
2023-01-03T15:28:30.389Z,13.50
2023-01-03T15:30:57.087Z,13.40
2023-01-03T15:33:33.344Z,13.30
2023-01-03T15:35:59.868Z,13.20
2023-01-03T15:38:34.552Z,13.20
2023-01-03T15:40:59.239Z,13.10
2023-01-03T15:43:28.689Z,13.10
2023-01-03T15:46:02.418Z,13.10
2023-01-03T15:48:28.033Z,13.00
2023-01-03T15:50:55.985Z,13.00
2023-01-03T15:53:27.403Z,13.00
2023-01-03T15:55:53.821Z,13.00
2023-01-03T15:58:18.990Z,12.90
2023-01-03T16:00:44.474Z,12.80
2023-01-03T16:03:16.198Z,12.80
2023-01-03T16:05:41.795Z,12.80
2023-01-03T16:08:12.127Z,12.70
2023-01-03T16:10:38.869Z,12.70
2023-01-03T16:13:03.401Z,12.70
2023-01-03T16:15:28.566Z,12.60
2023-01-03T16:17:53.177Z,12.50
2023-01-03T16:20:19.797Z,12.50
2023-01-03T16:22:57.674Z,12.50
2023-01-03T16:25:26.289Z,12.40
2023-01-03T16:27:52.146Z,12.40
2023-01-03T16:30:16.790Z,12.40
2023-01-03T16:32:41.577Z,12.30
2023-01-03T16:35:16.423Z,12.20
2023-01-03T16:37:40.898Z,12.20
2023-01-03T16:40:05.991Z,12.20
2023-01-03T16:42:30.919Z,12.00
2023-01-03T16:44:58.092Z,11.80
2023-01-03T16:47:24.513Z,11.80
2023-01-03T16:49:52.880Z,11.90
2023-01-03T16:52:22.477Z,11.90
2023-01-03T16:54:47.879Z,11.90
2023-01-03T16:57:18.773Z,11.90
2023-01-03T16:59:43.547Z,11.70
2023-01-03T17:02:09.659Z,11.70
2023-01-03T17:04:34.333Z,11.70
2023-01-03T17:06:59.464Z,11.60
2023-01-03T17:09:31.657Z,11.60
2023-01-03T17:11:56.202Z,11.50
2023-01-03T17:14:23.479Z,11.40
2023-01-03T17:16:48.584Z,11.40
2023-01-03T17:20:01.147Z,11.50
2023-01-03T17:22:05.043Z,11.50
2023-01-03T17:24:30.202Z,11.40
2023-01-03T17:27:00.701Z,11.30
2023-01-03T17:29:27.260Z,11.30
2023-01-03T17:31:51.857Z,11.20
2023-01-03T17:34:24.730Z,11.20
2023-01-03T17:36:50.290Z,11.20
2023-01-03T17:39:14.840Z,11.10
2023-01-03T17:41:53.151Z,11.00
2023-01-03T17:44:18.798Z,11.10
2023-01-03T17:47:01.276Z,11.10
2023-01-03T17:49:27.304Z,11.10
2023-01-03T17:51:52.839Z,11.10
2023-01-03T17:54:17.628Z,11.00
2023-01-03T17:56:42.284Z,11.00
2023-01-03T17:59:06.769Z,11.00
2023-01-03T18:01:31.340Z,10.90
2023-01-03T18:03:56.095Z,10.90
2023-01-03T18:06:25.570Z,10.90
2023-01-03T18:08:51.817Z,10.90
2023-01-03T18:11:19.111Z,10.80
2023-01-03T18:13:44.459Z,10.70
2023-01-03T18:16:13.337Z,10.70
2023-01-03T18:18:38.101Z,10.70
2023-01-03T18:21:03.359Z,10.60
2023-01-03T18:23:32.914Z,10.60
2023-01-03T18:26:00.774Z,10.50
2023-01-03T18:28:27.765Z,10.50
2023-01-03T18:30:52.268Z,10.50
2023-01-03T18:33:16.892Z,10.50
2023-01-03T18:35:41.904Z,10.60
2023-01-03T18:38:06.956Z,10.60
2023-01-03T18:40:33.368Z,10.50
2023-01-03T18:43:11.326Z,10.50
2023-01-03T18:45:36.518Z,10.60
2023-01-03T18:48:01.256Z,10.50
2023-01-03T18:50:26.676Z,10.50
2023-01-03T18:52:52.759Z,10.40
2023-01-03T18:55:20.606Z,10.40
2023-01-03T18:57:48.340Z,10.20
2023-01-03T19:00:17.904Z,10.20
2023-01-03T19:02:42.638Z,10.30
2023-01-03T19:05:08.504Z,10.30
2023-01-03T19:07:34.880Z,10.30
2023-01-03T19:10:00.213Z,10.30
2023-01-03T19:12:25.859Z,10.30
2023-01-03T19:14:52.154Z,10.30
2023-01-03T19:17:18.740Z,10.30
2023-01-03T19:19:43.570Z,10.20
2023-01-03T19:22:18.665Z,10.10
2023-01-03T19:24:45.100Z,10.10
2023-01-03T19:27:14.996Z,10.20
2023-01-03T19:29:39.669Z,10.20
2023-01-03T19:32:08.559Z,10.20
2023-01-03T19:34:33.473Z,10.20
2023-01-03T19:36:59.512Z,10.20
2023-01-03T19:39:26.252Z,10.20
2023-01-03T19:42:11.509Z,10.30
2023-01-03T19:44:36.891Z,10.30
2023-01-03T19:47:01.721Z,10.30
2023-01-03T19:49:28.343Z,10.30
2023-01-03T19:51:52.874Z,10.20
2023-01-03T19:54:17.443Z,10.20
2023-01-03T19:56:41.897Z,10.10
2023-01-03T19:59:09.256Z,10.00
2023-01-03T20:01:50.531Z,10.00
2023-01-03T20:04:19.336Z,10.00
2023-01-03T20:06:45.362Z,9.90
2023-01-03T20:09:09.868Z,9.90
2023-01-03T20:11:34.430Z,9.90
2023-01-03T20:13:59.019Z,9.80
2023-01-03T20:16:24.102Z,9.80
2023-01-03T20:18:49.104Z,9.80
2023-01-03T20:21:22.642Z,9.80
2023-01-03T20:23:51.540Z,9.80
2023-01-03T20:26:22.835Z,9.80
2023-01-03T20:28:47.477Z,9.80
2023-01-03T20:31:16.743Z,9.80
2023-01-03T20:33:45.020Z,9.80
2023-01-03T20:36:22.509Z,9.80
2023-01-03T20:38:50.811Z,9.80
2023-01-03T20:41:17.231Z,9.80
2023-01-03T20:43:42.016Z,9.80
2023-01-03T20:46:06.981Z,9.80
2023-01-03T20:48:31.947Z,9.90
2023-01-03T20:50:57.037Z,9.90
2023-01-03T20:53:23.390Z,9.90
2023-01-03T20:55:50.061Z,9.70
2023-01-03T20:58:15.483Z,9.60
2023-01-03T21:00:40.263Z,9.70
2023-01-03T21:03:04.913Z,9.60
2023-01-03T21:05:29.455Z,9.70
2023-01-03T21:08:11.001Z,9.60
2023-01-03T21:10:38.740Z,9.50
2023-01-03T21:13:04.756Z,9.30
2023-01-03T21:15:29.267Z,9.20
2023-01-03T21:17:53.725Z,9.10
2023-01-03T21:20:20.217Z,9.00
2023-01-03T21:22:44.836Z,9.00
2023-01-03T21:25:23.275Z,9.10
2023-01-03T21:27:48.427Z,9.00
2023-01-03T21:30:16.361Z,9.00
2023-01-03T21:32:40.849Z,8.90
2023-01-03T21:35:05.840Z,8.90
2023-01-03T21:37:30.548Z,8.90
2023-01-03T21:39:55.461Z,9.00
2023-01-03T21:42:37.111Z,9.00
2023-01-03T21:45:02.037Z,8.90
2023-01-03T21:47:29.221Z,8.90
2023-01-03T21:49:53.857Z,8.90
2023-01-03T21:52:18.336Z,8.90
2023-01-03T21:54:42.892Z,8.90
2023-01-03T21:57:07.419Z,8.80
2023-01-03T21:59:32.175Z,8.80
2023-01-03T22:02:13.874Z,8.80
2023-01-03T22:04:40.059Z,8.80
2023-01-03T22:07:04.636Z,8.90
2023-01-03T22:09:46.989Z,8.90
2023-01-03T22:12:14.662Z,8.90
2023-01-03T22:14:40.388Z,8.80
2023-01-03T22:17:05.001Z,8.90
2023-01-03T22:19:29.848Z,8.90
2023-01-03T22:21:55.991Z,8.80
2023-01-03T22:24:20.459Z,8.90
2023-01-03T22:26:44.994Z,8.90
2023-01-03T22:29:09.410Z,9.00
2023-01-03T22:31:34.117Z,9.00
2023-01-03T22:33:58.626Z,9.00
2023-01-03T22:36:23.183Z,9.10
2023-01-03T22:38:49.386Z,9.20
2023-01-03T22:41:15.934Z,9.30
2023-01-03T22:43:40.793Z,9.30
2023-01-03T22:46:09.604Z,9.30
2023-01-03T22:48:34.130Z,9.30
2023-01-03T22:50:58.545Z,9.30
2023-01-03T22:53:23.271Z,9.30
2023-01-03T22:55:49.360Z,9.30
2023-01-03T22:58:16.403Z,9.40
2023-01-03T23:00:40.933Z,9.30
2023-01-03T23:03:05.608Z,9.30
2023-01-03T23:05:30.190Z,9.30
2023-01-03T23:07:54.643Z,9.20
2023-01-03T23:10:19.249Z,9.20
2023-01-03T23:12:59.084Z,9.20
2023-01-03T23:15:23.769Z,9.10
2023-01-03T23:17:57.320Z,9.00
2023-01-03T23:20:21.902Z,8.90
2023-01-03T23:22:46.767Z,8.90
2023-01-03T23:25:11.987Z,8.80
2023-01-03T23:27:37.066Z,8.80
2023-01-03T23:30:03.022Z,8.70
2023-01-03T23:32:27.615Z,8.70
2023-01-03T23:34:52.515Z,8.70
2023-01-03T23:37:16.961Z,8.80
2023-01-03T23:39:41.580Z,8.70
2023-01-03T23:42:06.163Z,8.80
2023-01-03T23:44:31.003Z,8.80
2023-01-03T23:46:57.038Z,8.70
2023-01-03T23:49:21.807Z,8.70
2023-01-03T23:51:46.282Z,8.60
2023-01-03T23:54:11.333Z,8.50
2023-01-03T23:56:35.922Z,8.30
2023-01-03T23:59:00.604Z,8.40
